Time;durP1;ratioP1;P1;durP2;ratioP2;P2;SDS_P1;SDS_P2;PMS_P1;PMS_P2;Temp;Humidity;BMP_temperature;BMP_pressure;BME280_temperature;BME280_humidity;BME280_pressure;Samples;Min_cycle;Max_cycle;Signal;HPM_P1;HPM_P2
2021/11/17 02:26:42;;;;;;;29.23;11.55;;;5.50;99.90;;;3.81;100.00;101646.88;2565791;30;138928;-38
2021/11/17 02:29:49;;;;;;;31.10;11.20;;;5.50;99.90;;;3.85;100.00;101642.03;2570491;30;137486;-38
2021/11/17 02:32:51;;;;;;;29.48;11.10;;;5.50;99.90;;;3.85;100.00;101636.63;2568349;30;138092;-38
2021/11/17 02:35:38;;;;;;;29.35;11.48;;;5.50;99.90;;;3.85;100.00;101637.47;2568709;30;139180;-38
2021/11/17 02:38:26;;;;;;;30.48;11.80;;;5.60;99.90;;;3.86;100.00;101641.88;2568808;30;137026;-38
2021/11/17 02:41:54;;;;;;;29.23;12.13;;;5.60;99.90;;;3.87;100.00;101635.47;2569865;30;139312;-38
2021/11/17 02:44:39;;;;;;;32.13;12.77;;;5.60;99.90;;;3.89;100.00;101641.56;2567896;30;136947;-37
2021/11/17 02:47:43;;;;;;;31.30;11.77;;;5.60;99.90;;;3.86;100.00;101628.38;2569389;30;138111;-38
2021/11/17 02:50:58;;;;;;;30.33;11.45;;;5.60;99.90;;;3.88;100.00;101625.53;2570686;30;137840;-38
2021/11/17 02:53:44;;;;;;;30.65;11.82;;;5.60;99.90;;;3.89;100.00;101625.38;2568280;30;138292;-38
2021/11/17 02:56:45;;;;;;;33.15;12.65;;;5.60;99.90;;;3.88;100.00;101631.78;2569091;30;137605;-38
2021/11/17 02:59:39;;;;;;;30.88;12.52;;;5.60;99.90;;;3.87;100.00;101619.28;2570785;30;139202;-38
2021/11/17 03:02:52;;;;;;;30.50;12.45;;;5.60;99.90;;;3.83;100.00;101622.41;2568525;30;138276;-38
2021/11/17 03:06:09;;;;;;;29.52;12.23;;;5.50;99.90;;;3.85;100.00;101626.69;2568522;30;138404;-38
2021/11/17 03:09:01;;;;;;;26.55;12.55;;;5.60;99.90;;;3.85;100.00;101626.69;2567853;30;137432;-38
2021/11/17 03:11:51;;;;;;;31.67;12.68;;;5.60;99.90;;;3.84;100.00;101624.13;2571620;30;137122;-38
2021/11/17 03:14:46;;;;;;;29.58;11.82;;;5.60;99.90;;;3.87;100.00;101630.06;2568942;30;137045;-37
2021/11/17 03:18:00;;;;;;;31.50;12.20;;;5.60;99.90;;;3.87;100.00;101624.69;2571091;30;139161;-38
2021/11/17 03:20:48;;;;;;;31.75;13.02;;;5.60;99.90;;;3.92;100.00;101626.06;2568223;30;138394;-38
2021/11/17 03:29:18;;;;;;;29.00;11.70;;;5.60;99.90;;;3.87;100.00;101623.84;2566111;30;139787;-39
2021/11/17 03:31:59;;;;;;;25.42;11.68;;;5.60;99.90;;;3.88;100.00;101628.25;2569118;30;137538;-39
2021/11/17 03:34:44;;;;;;;30.75;13.65;;;5.60;99.90;;;3.92;100.00;101632.34;2567428;30;139551;-39
2021/11/17 03:37:23;;;;;;;31.67;13.25;;;5.60;99.90;;;3.91;100.00;101635.19;2568058;30;136990;-39
2021/11/17 03:40:01;;;;;;;31.38;13.32;;;5.60;99.90;;;3.91;100.00;101635.19;2568154;30;138294;-39
2021/11/17 03:43:28;;;;;;;33.55;13.88;;;5.60;99.90;;;3.91;100.00;101632.47;2568596;30;137373;-39
2021/11/17 03:46:27;;;;;;;28.25;11.65;;;5.60;99.90;;;3.90;100.00;101634.34;2567664;30;138283;-39
2021/11/17 03:49:22;;;;;;;31.95;13.38;;;5.60;99.90;;;3.92;100.00;101637.75;2567863;30;138342;-39
2021/11/17 03:52:08;;;;;;;32.85;14.13;;;5.60;99.90;;;3.95;100.00;101637.44;2568525;30;138201;-39
2021/11/17 03:55:26;;;;;;;28.30;11.90;;;5.60;99.90;;;3.93;100.00;101638.56;2568025;30;138683;-39
2021/11/17 03:58:12;;;;;;;32.88;13.10;;;5.60;99.90;;;3.96;100.00;101646.38;2568060;30;138468;-39
2021/11/17 04:01:08;;;;;;;33.53;13.00;;;5.60;99.90;;;4.00;100.00;101645.09;2567600;30;138531;-39
2021/11/17 04:04:03;;;;;;;32.05;13.77;;;5.70;99.90;;;3.99;100.00;101654.22;2568682;30;138361;-39
2021/11/17 04:06:59;;;;;;;30.77;12.25;;;5.70;99.90;;;3.99;100.00;101655.03;2566658;30;137640;-39
2021/11/17 04:09:50;;;;;;;29.13;11.55;;;5.70;99.90;;;4.01;100.00;101655.75;2568586;30;138384;-39
2021/11/17 04:12:48;;;;;;;30.90;12.43;;;5.70;99.90;;;4.07;100.00;101657.00;2567965;30;137556;-39
2021/11/17 04:15:30;;;;;;;27.52;11.45;;;5.70;99.90;;;4.05;100.00;101659.00;2566536;30;139247;-39
2021/11/17 04:18:32;;;;;;;31.85;13.18;;;5.70;99.90;;;4.05;100.00;101660.84;2566553;30;137831;-39
2021/11/17 04:21:40;;;;;;;28.67;12.30;;;5.70;99.90;;;4.02;100.00;101660.13;2568540;30;137516;-39
2021/11/17 04:24:47;;;;;;;27.25;11.48;;;5.70;99.90;;;4.01;100.00;101658.44;2568039;30;137599;-39
2021/11/17 04:27:43;;;;;;;29.17;11.70;;;5.70;99.90;;;4.01;100.00;101669.25;2567696;30;138392;-39
2021/11/17 04:30:45;;;;;;;27.77;12.05;;;5.70;99.90;;;4.02;100.00;101670.13;2566884;30;137884;-39
2021/11/17 04:33:37;;;;;;;27.65;11.70;;;5.70;99.90;;;4.02;100.00;101670.13;2568472;30;139275;-39
2021/11/17 04:36:54;;;;;;;31.13;12.20;;;5.70;99.90;;;4.05;100.00;101677.03;2567645;30;137631;-39
2021/11/17 04:39:57;;;;;;;29.48;11.77;;;5.70;99.90;;;4.03;100.00;101674.50;2567178;30;138463;-39
2021/11/17 04:43:12;;;;;;;28.75;11.77;;;5.70;99.90;;;4.08;100.00;101690.25;2565643;30;137680;-39
2021/11/17 04:45:58;;;;;;;31.00;12.07;;;5.70;99.90;;;4.06;100.00;101690.41;2567914;30;140707;-39
2021/11/17 04:48:43;;;;;;;28.92;11.10;;;5.70;99.90;;;4.07;100.00;101692.13;2565992;30;137209;-40
2021/11/17 04:51:32;;;;;;;28.92;11.80;;;5.70;99.90;;;4.09;100.00;101689.25;2568058;30;137298;-39
2021/11/17 04:54:30;;;;;;;29.95;11.45;;;5.80;99.90;;;4.10;100.00;101688.25;2566407;30;137838;-39
2021/11/17 04:57:21;;;;;;;28.73;11.07;;;5.80;99.90;;;4.10;100.00;101670.22;2567822;30;138304;-39
2021/11/17 05:00:27;;;;;;;26.08;11.18;;;5.80;99.90;;;4.11;100.00;101665.63;2564984;30;137233;-39
2021/11/17 05:03:29;;;;;;;27.80;11.45;;;5.80;99.90;;;4.13;100.00;101661.81;2568342;30;137130;-39
2021/11/17 05:06:24;;;;;;;29.60;11.50;;;5.80;99.90;;;4.11;100.00;101647.59;2568131;30;136879;-39
2021/11/17 05:09:08;;;;;;;26.60;11.27;;;5.80;99.90;;;4.10;100.00;101664.81;2567952;30;138277;-39
2021/11/17 05:12:15;;;;;;;29.23;11.63;;;5.80;99.90;;;4.12;100.00;101664.66;2567922;30;137684;-39
2021/11/17 05:14:54;;;;;;;25.00;10.13;;;5.80;99.90;;;4.10;100.00;101662.09;2566534;30;137458;-39
2021/11/17 05:17:40;;;;;;;28.27;11.13;;;5.80;99.90;;;4.14;100.00;101660.81;2567132;30;137599;-39
2021/11/17 05:20:47;;;;;;;28.88;11.98;;;5.80;99.90;;;4.11;100.00;101658.41;2567657;30;138537;-40
2021/11/17 05:23:46;;;;;;;25.42;10.63;;;5.80;99.90;;;4.10;100.00;101643.19;2568409;30;136984;-39
2021/11/17 05:27:11;;;;;;;27.27;12.05;;;5.80;99.90;;;4.10;100.00;101654.00;2566870;30;137799;-39
2021/11/17 05:30:00;;;;;;;32.00;11.95;;;5.80;99.90;;;4.11;100.00;101663.81;2567783;30;136759;-39
2021/11/17 05:32:40;;;;;;;27.65;11.43;;;5.80;99.90;;;4.13;100.00;101680.72;2567690;30;138377;-39
2021/11/17 05:35:45;;;;;;;25.45;11.35;;;5.80;99.90;;;4.20;100.00;101672.00;2568501;30;137102;-39
2021/11/17 05:38:22;;;;;;;27.27;10.38;;;5.80;99.90;;;4.19;100.00;101660.38;2564471;30;139291;-39
2021/11/17 05:41:27;;;;;;;26.95;11.35;;;5.90;99.90;;;4.18;100.00;101672.16;2566995;30;137658;-39
2021/11/17 05:44:03;;;;;;;24.98;10.82;;;5.80;99.90;;;4.18;100.00;101654.09;2566456;30;138360;-39
2021/11/17 05:46:39;;;;;;;28.58;11.38;;;5.90;99.90;;;4.17;100.00;101644.28;2568284;30;137851;-40
2021/11/17 05:49:34;;;;;;;28.60;11.50;;;5.90;99.90;;;4.21;100.00;101649.38;2567400;30;137026;-39
2021/11/17 05:52:37;;;;;;;27.33;10.98;;;5.90;99.90;;;4.18;100.00;101637.88;2567441;30;137435;-39
2021/11/17 05:55:36;;;;;;;29.27;11.45;;;5.90;99.90;;;4.18;100.00;101607.34;2568297;30;138620;-39
2021/11/17 05:58:38;;;;;;;24.35;11.25;;;5.90;99.90;;;4.23;100.00;101610.44;2568043;30;137445;-39
2021/11/17 06:01:14;;;;;;;30.55;12.27;;;5.90;99.90;;;4.23;100.00;101612.28;2567450;30;139248;-39
2021/11/17 06:03:42;;;;;;;26.85;11.23;;;5.90;99.90;;;4.20;100.00;101612.56;2567292;30;137439;-39
2021/11/17 06:06:09;;;;;;;29.30;12.52;;;5.90;99.90;;;4.22;100.00;101621.38;2567021;30;138431;-39
2021/11/17 06:08:36;;;;;;;32.55;12.65;;;5.90;99.90;;;4.26;100.00;101617.41;2567534;30;137581;-39
2021/11/17 06:11:05;;;;;;;30.80;13.35;;;5.90;99.90;;;4.25;100.00;101634.59;2567738;30;137382;-40
2021/11/17 06:13:33;;;;;;;30.55;12.63;;;5.90;99.90;;;4.27;100.00;101649.66;2568052;30;137069;-39
2021/11/17 06:16:02;;;;;;;32.80;12.90;;;5.90;99.90;;;4.25;100.00;101631.91;2565819;30;137809;-39
2021/11/17 06:18:34;;;;;;;29.88;11.90;;;5.90;99.90;;;4.23;100.00;101629.34;2567891;30;137011;-39
2021/11/17 06:21:08;;;;;;;26.30;12.07;;;5.90;99.90;;;4.24;100.00;101640.97;2567812;30;139290;-40
2021/11/17 06:23:49;;;;;;;28.63;11.27;;;5.90;99.90;;;4.23;100.00;101650.09;2569309;30;136791;-39
2021/11/17 06:26:25;;;;;;;27.67;11.38;;;5.90;99.90;;;4.25;100.00;101631.91;2568370;30;138507;-39
2021/11/17 06:28:57;;;;;;;25.90;11.70;;;5.90;99.90;;;4.27;100.00;101627.19;2568444;30;137718;-39
2021/11/17 06:31:27;;;;;;;25.70;11.00;;;5.90;99.90;;;4.26;100.00;101637.13;2566291;30;138333;-39
2021/11/17 06:33:55;;;;;;;28.67;11.80;;;5.90;99.90;;;4.26;100.00;101636.31;2567944;30;136703;-39
2021/11/17 06:36:23;;;;;;;;;;;5.90;99.90;;;4.27;100.00;101638.00;2567494;30;138042;-39
2021/11/17 06:38:51;;;;;;;23.88;10.73;;;5.90;99.90;;;4.28;100.00;101634.31;2568426;30;136950;-39
2021/11/17 06:41:20;;;;;;;27.95;12.02;;;5.90;99.90;;;4.34;100.00;101631.00;2566326;30;137480;-39
2021/11/17 06:43:48;;;;;;;27.88;11.98;;;6.00;99.90;;;4.33;100.00;101629.28;2568748;30;137861;-39
2021/11/17 06:46:15;;;;;;;30.92;11.85;;;6.00;99.90;;;4.34;100.00;101638.22;2568014;30;138573;-39
2021/11/17 06:48:43;;;;;;;26.67;12.45;;;6.00;99.90;;;4.36;100.00;101628.13;2566641;30;136888;-39
2021/11/17 06:51:11;;;;;;;25.25;10.77;;;6.00;99.90;;;4.37;100.00;101630.69;2568718;30;139144;-39
2021/11/17 06:53:40;;;;;;;25.38;11.70;;;6.00;99.90;;;4.39;100.00;101622.44;2566841;30;137314;-39
2021/11/17 06:56:08;;;;;;;24.33;10.45;;;6.10;99.90;;;4.41;100.00;101623.13;2566917;30;138253;-39
2021/11/17 06:58:36;;;;;;;;;;;6.10;99.90;;;4.40;100.00;101624.97;2567772;30;137012;-39
2021/11/17 07:01:03;;;;;;;26.95;10.85;;;6.10;99.90;;;4.43;100.00;101626.53;2568305;30;138486;-39
2021/11/17 07:03:31;;;;;;;25.05;10.88;;;6.10;99.90;;;4.46;100.00;101628.94;2567356;30;137370;-39
2021/11/17 07:05:59;;;;;;;26.23;11.40;;;6.10;99.90;;;4.47;100.00;101626.06;2568082;30;138325;-39
2021/11/17 07:08:26;;;;;;;27.65;11.73;;;6.10;99.90;;;4.51;100.00;101615.81;2567665;30;137863;-39
2021/11/17 07:10:54;;;;;;;24.38;11.20;;;6.10;99.90;;;4.49;100.00;101612.41;2567279;30;138012;-39
2021/11/17 07:13:22;;;;;;;25.45;11.32;;;6.20;99.90;;;4.49;100.00;101617.81;2568420;30;137668;-39
2021/11/17 07:15:51;;;;;;;21.20;10.00;;;6.10;99.90;;;4.51;100.00;101609.53;2566566;30;138950;-39
2021/11/17 07:18:19;;;;;;;22.55;10.40;;;6.20;99.90;;;4.55;100.00;101610.94;2567267;30;136857;-39
2021/11/17 07:20:47;;;;;;;23.70;10.35;;;6.20;99.90;;;4.53;100.00;101624.59;2567453;30;138182;-39
2021/11/17 07:23:17;;;;;;;21.85;10.25;;;6.20;99.90;;;4.59;100.00;101634.78;2568100;30;137484;-39
2021/11/17 07:25:45;;;;;;;21.48;10.40;;;6.20;99.90;;;4.62;100.00;101641.75;2565817;30;138939;-39
2021/11/17 07:28:13;;;;;;;21.98;10.18;;;6.20;99.90;;;4.65;100.00;101654.13;2566787;30;137844;-39
2021/11/17 07:30:42;;;;;;;;;;;6.30;99.90;;;4.73;100.00;101673.13;2567878;30;138486;-39
2021/11/17 07:33:13;;;;;;;20.97;10.33;;;6.30;99.90;;;4.80;100.00;101676.06;2567251;30;137675;-39
2021/11/17 07:35:45;;;;;;;21.27;9.65;;;6.40;99.90;;;4.83;100.00;101684.72;2565920;30;137324;-39
2021/11/17 07:38:19;;;;;;;21.73;10.13;;;6.50;99.90;;;4.86;100.00;101683.56;2567949;30;138603;-39
2021/11/17 07:40:48;;;;;;;20.23;10.23;;;6.50;99.90;;;4.95;100.00;101685.34;2566963;30;137319;-39
2021/11/17 07:43:18;;;;;;;21.75;10.18;;;6.50;99.90;;;5.01;100.00;101684.72;2568048;30;137692;-39
2021/11/17 07:45:47;;;;;;;19.70;9.52;;;6.60;99.90;;;5.11;100.00;101683.81;2567718;30;137537;-39
2021/11/17 07:48:20;;;;;;;21.17;10.48;;;6.70;99.90;;;5.18;100.00;101677.63;2567689;30;137704;-39
2021/11/17 07:50:48;;;;;;;22.70;9.82;;;6.70;99.90;;;5.29;100.00;101690.03;2568202;30;137266;-39
2021/11/17 07:53:20;;;;;;;20.52;9.55;;;6.80;99.90;;;5.39;100.00;101699.94;2568624;30;137416;-39
2021/11/17 07:55:52;;;;;;;24.48;10.13;;;6.90;99.90;;;5.40;100.00;101693.53;2566919;30;137063;-39
2021/11/17 07:58:23;;;;;;;21.15;9.27;;;7.00;99.90;;;5.38;100.00;101699.06;2566589;30;137680;-39
2021/11/17 08:00:56;;;;;;;22.55;9.85;;;6.90;99.90;;;5.39;100.00;101699.94;2566788;30;138630;-39
2021/11/17 08:03:28;;;;;;;20.05;9.48;;;7.00;99.90;;;5.41;100.00;101698.75;2568791;30;138141;-39
2021/11/17 08:05:56;;;;;;;21.50;9.52;;;7.00;99.90;;;5.42;100.00;101695.03;2568262;30;137533;-39
2021/11/17 08:08:27;;;;;;;18.83;9.73;;;7.00;99.90;;;5.42;100.00;101689.63;2568601;30;137369;-39
2021/11/17 08:10:55;;;;;;;18.65;9.50;;;7.00;99.90;;;5.40;100.00;101693.53;2566303;30;138326;-39
2021/11/17 08:13:23;;;;;;;21.92;9.88;;;7.00;99.90;;;5.39;100.00;101689.13;2568577;30;137508;-39
2021/11/17 08:15:52;;;;;;;18.35;8.65;;;7.00;99.90;;;5.37;100.00;101689.25;2566403;30;139288;-39
2021/11/17 08:18:20;;;;;;;20.75;10.05;;;7.00;99.90;;;5.38;100.00;101690.13;2569069;30;136981;-39
2021/11/17 08:20:47;;;;;;;19.65;8.85;;;7.00;99.90;;;5.37;100.00;101696.53;2567011;30;138375;-39
2021/11/17 08:23:15;;;;;;;18.02;9.50;;;7.00;99.90;;;5.37;100.00;101691.97;2568667;30;136857;-39
2021/11/17 08:25:42;;;;;;;20.38;8.93;;;7.00;99.90;;;5.42;100.00;101684.22;2567097;30;137424;-39
2021/11/17 08:28:12;;;;;;;16.58;9.13;;;7.00;99.90;;;5.43;100.00;101675.09;2568966;30;137568;-40
2021/11/17 08:30:41;;;;;;;17.02;8.23;;;7.00;99.90;;;5.43;100.00;101682.38;2566410;30;138553;-39
2021/11/17 08:33:13;;;;;;;16.92;8.13;;;7.00;99.90;;;5.39;100.00;101683.69;2566289;30;138211;-39
2021/11/17 08:35:41;;;;;;;20.50;8.48;;;7.00;99.90;;;5.36;100.00;101684.03;2568331;30;137555;-39
2021/11/17 08:38:14;;;;;;;16.17;8.32;;;7.00;99.90;;;5.36;100.00;101681.31;2565732;30;137367;-40
2021/11/17 08:40:48;;;;;;;17.63;8.73;;;7.00;99.90;;;5.43;100.00;101676.97;2568301;30;138196;-39
2021/11/17 08:43:17;;;;;;;16.58;7.43;;;7.00;99.90;;;5.43;100.00;101683.22;2568611;30;137118;-39
2021/11/17 08:45:48;;;;;;;17.58;8.38;;;7.00;99.90;;;5.44;100.00;101692.19;2568034;30;138396;-40
2021/11/17 08:48:20;;;;;;;15.98;7.97;;;7.00;99.90;;;5.40;100.00;101678.13;2568124;30;137037;-39
2021/11/17 08:50:50;;;;;;;15.30;6.97;;;7.00;99.90;;;5.48;100.00;101685.44;2567863;30;138627;-39
2021/11/17 08:53:20;;;;;;;19.40;8.48;;;7.10;99.90;;;5.49;100.00;101679.03;2565948;30;136663;-39
2021/11/17 08:55:48;;;;;;;19.80;8.07;;;7.10;99.90;;;5.52;100.00;101678.72;2567757;30;138382;-39
2021/11/17 08:58:17;;;;;;;18.30;8.15;;;7.10;99.90;;;5.53;100.00;101683.13;2569064;30;137338;-39
2021/11/17 09:00:46;;;;;;;18.20;8.43;;;7.10;99.90;;;5.55;100.00;101683.81;2568252;30;137507;-39
2021/11/17 09:03:15;;;;;;;18.00;8.43;;;7.10;99.90;;;5.56;100.00;101685.50;2566129;30;137638;-39
2021/11/17 09:05:53;;;;;;;20.23;8.50;;;7.10;99.90;;;5.56;100.00;101690.91;2567796;30;137797;-39
2021/11/17 09:08:28;;;;;;;15.70;7.55;;;7.10;99.90;;;5.59;100.00;101700.59;2567509;30;138313;-39
2021/11/17 09:11:05;;;;;;;16.08;7.30;;;7.20;99.90;;;5.63;100.00;101698.44;2568262;30;139415;-39
2021/11/17 09:13:34;;;;;;;14.13;7.35;;;7.20;99.90;;;5.60;100.00;101695.03;2567506;30;136828;-39
2021/11/17 09:16:03;;;;;;;17.13;7.75;;;7.20;99.90;;;5.61;100.00;101704.84;2565107;30;138783;-39
2021/11/17 09:18:34;;;;;;;16.40;7.93;;;7.20;99.90;;;5.64;100.00;101703.66;2567827;30;137093;-39
2021/11/17 09:21:09;;;;;;;16.48;8.07;;;7.20;99.90;;;5.71;100.00;101712.00;2567932;30;138224;-39
2021/11/17 09:23:36;;;;;;;16.83;7.47;;;7.30;99.90;;;5.66;100.00;101701.66;2567154;30;139150;-39
2021/11/17 09:26:05;;;;;;;17.08;7.72;;;7.30;99.90;;;5.69;100.00;101705.91;2566996;30;138072;-40
2021/11/17 09:28:35;;;;;;;18.25;8.07;;;7.30;99.90;;;5.77;100.00;101689.72;2568115;30;138140;-38
2021/11/17 09:31:06;;;;;;;17.70;8.05;;;7.30;99.90;;;5.78;100.00;101690.56;2568616;30;138416;-38
2021/11/17 09:33:37;;;;;;;17.10;7.70;;;7.30;99.90;;;5.81;100.00;101688.38;2570506;30;136813;-38
2021/11/17 09:36:06;;;;;;;16.92;8.07;;;7.40;99.90;;;5.81;100.00;101693.78;2567948;30;138908;-38
2021/11/17 09:38:36;;;;;;;15.57;7.75;;;7.40;99.90;;;5.86;100.00;101694.19;2569459;30;137390;-38
2021/11/17 09:41:13;;;;;;;18.58;7.85;;;7.40;99.90;;;6.03;100.00;101697.00;2569231;30;138400;-38
2021/11/17 09:43:47;;;;;;;19.02;8.43;;;7.50;99.90;;;6.02;100.00;101696.16;2570077;30;138340;-38
2021/11/17 09:46:19;;;;;;;20.58;8.15;;;7.60;99.90;;;6.04;100.00;101702.28;2569239;30;139032;-38
2021/11/17 09:48:58;;;;;;;18.38;8.57;;;7.60;99.90;;;6.06;100.00;101707.50;2569299;30;137745;-38
2021/11/17 09:51:46;;;;;;;18.98;8.18;;;7.60;99.90;;;6.09;100.00;101720.72;2568793;30;139218;-38
2021/11/17 09:54:28;;;;;;;17.30;7.88;;;7.60;99.90;;;6.14;100.00;101725.69;2567654;30;137666;-38
2021/11/17 09:57:17;;;;;;;18.65;8.68;;;7.70;99.90;;;6.12;100.00;101728.56;2567736;30;138409;-38
2021/11/17 09:59:50;;;;;;;17.63;7.85;;;7.70;99.90;;;6.15;100.00;101730.09;2567576;30;137783;-38
2021/11/17 10:02:39;;;;;;;17.13;7.80;;;7.70;99.90;;;6.14;100.00;101729.25;2565123;30;139409;-38
2021/11/17 10:05:23;;;;;;;16.38;8.30;;;7.70;99.90;;;6.18;100.00;101730.63;2569572;30;137390;-38
2021/11/17 10:11:18;;;;;;;16.92;8.20;;;7.70;99.90;;;6.21;100.00;101715.06;2567996;30;138414;-38
2021/11/17 10:13:56;;;;;;;16.88;6.57;;;7.70;99.90;;;6.28;100.00;101725.09;2567627;30;138309;-38
2021/11/17 10:16:24;;;;;;;15.60;7.35;;;7.80;99.90;;;6.22;99.71;101722.19;2568530;30;137607;-38
2021/11/17 10:19:12;;;;;;;15.35;7.50;;;7.80;99.90;;;6.28;99.28;101730.50;2569227;30;138911;-38
2021/11/17 10:21:40;;;;;;;15.52;7.82;;;7.80;99.90;;;6.33;99.60;101733.59;2568786;30;137586;-38
2021/11/17 10:24:14;;;;;;;15.30;7.45;;;7.90;99.90;;;6.37;99.65;101731.41;2568437;30;138044;-37
2021/11/17 10:26:59;;;;;;;14.80;7.43;;;7.90;99.90;;;6.48;99.76;101735.66;2567861;30;137137;-38
2021/11/17 10:29:39;;;;;;;20.35;8.10;;;8.00;99.90;;;6.45;99.71;101742.28;2567621;30;137692;-38
2021/11/17 10:32:31;;;;;;;15.98;7.18;;;8.00;99.90;;;6.44;99.02;101751.44;2566365;30;137589;-38
2021/11/17 10:35:29;;;;;;;17.75;8.10;;;8.00;99.90;;;6.41;98.94;101751.75;2568463;30;137271;-38
2021/11/17 10:38:18;;;;;;;15.43;6.82;;;8.00;99.90;;;6.39;99.33;101748.34;2568790;30;137416;-38
2021/11/17 10:40:53;;;;;;;;;;;8.00;99.90;;;6.42;99.40;101750.75;2570302;30;139079;-38
2021/11/17 10:43:32;;;;;;;18.40;7.28;;;8.00;99.90;;;6.40;100.00;101744.63;2569572;30;137723;-38
2021/11/17 10:46:22;;;;;;;17.50;8.00;;;8.00;99.90;;;6.40;100.00;101747.34;2569387;30;138425;-38
2021/11/17 10:49:07;;;;;;;15.75;7.35;;;8.00;99.90;;;6.44;100.00;101745.13;2568360;30;138186;-38
2021/11/17 10:51:55;;;;;;;16.88;8.00;;;8.00;99.90;;;6.43;100.00;101733.47;2567687;30;139486;-38
2021/11/17 10:54:28;;;;;;;17.85;8.15;;;8.00;99.90;;;6.49;100.00;101731.94;2567765;30;137291;-38
2021/11/17 10:57:12;;;;;;;17.42;8.13;;;8.00;99.90;;;6.54;100.00;101739.59;2569510;30;138250;-38
2021/11/17 10:59:40;;;;;;;16.67;7.85;;;8.10;99.90;;;6.60;100.00;101744.34;2569424;30;137254;-38
2021/11/17 11:02:10;;;;;;;17.38;8.63;;;8.10;99.90;;;6.61;100.00;101737.91;2568140;30;138343;-38
2021/11/17 11:05:09;;;;;;;19.35;9.60;;;8.10;99.90;;;6.62;100.00;101734.19;2569854;30;137345;-38
2021/11/17 11:08:14;;;;;;;19.70;9.20;;;8.20;99.90;;;6.69;100.00;101732.53;2569257;30;137304;-38
2021/11/17 11:10:50;;;;;;;21.33;8.82;;;8.20;99.90;;;6.70;100.00;101736.94;2570443;30;136850;-38
2021/11/17 11:13:35;;;;;;;22.83;10.32;;;8.20;99.90;;;6.70;100.00;101736.94;2568221;30;138886;-38
2021/11/17 11:16:43;;;;;;;23.40;10.73;;;8.20;99.90;;;6.74;100.00;101732.91;2569780;30;137865;-38
2021/11/17 11:19:10;;;;;;;26.63;10.98;;;8.30;99.90;;;6.81;100.00;101722.25;2568788;30;137161;-38
2021/11/17 11:21:41;;;;;;;24.00;10.77;;;8.30;99.90;;;6.87;100.00;101734.28;2569440;30;137657;-38
2021/11/17 11:24:34;;;;;;;24.02;11.02;;;8.30;99.90;;;6.95;100.00;101733.44;2570337;30;138473;-38
2021/11/17 11:27:01;;;;;;;24.55;11.68;;;8.40;99.90;;;6.94;100.00;101732.63;2572676;30;137927;-38
2021/11/17 11:29:45;;;;;;;27.88;11.68;;;8.50;99.90;;;7.03;100.00;101723.47;2568973;30;137306;-38
2021/11/17 11:32:16;;;;;;;28.25;11.82;;;8.50;99.90;;;7.03;100.00;101725.34;2567687;30;137824;-38
2021/11/17 11:34:58;;;;;;;26.10;11.32;;;8.50;99.90;;;7.09;100.00;101730.09;2568795;30;137478;-38
2021/11/17 11:37:25;;;;;;;26.63;12.48;;;8.60;99.90;;;7.11;100.00;101722.63;2570947;30;137292;-38
2021/11/17 11:40:04;;;;;;;30.63;13.40;;;8.60;99.90;;;7.15;100.00;101723.13;2570927;30;138177;-38
2021/11/17 11:42:59;;;;;;;31.90;13.05;;;8.60;99.90;;;7.19;100.00;101730.78;2570369;30;138458;-38
2021/11/17 11:45:27;;;;;;;30.45;13.55;;;8.70;99.90;;;7.23;100.00;101727.72;2568361;30;138467;-38
2021/11/17 11:48:26;;;;;;;27.40;12.88;;;8.70;99.90;;;7.25;100.00;101725.69;2569896;30;137842;-38
2021/11/17 11:51:32;;;;;;;33.60;14.18;;;8.70;99.90;;;7.29;100.00;101724.31;2568892;30;138845;-38
2021/11/17 11:54:26;;;;;;;30.75;14.10;;;8.80;99.90;;;7.29;100.00;101718.91;2570492;30;137452;-38
2021/11/17 11:57:40;;;;;;;31.02;13.85;;;8.80;99.90;;;7.26;100.00;101728.25;2569122;30;138041;-38
2021/11/17 12:00:11;;;;;;;30.90;13.55;;;8.80;99.90;;;7.25;100.00;101722.97;2569204;30;138269;-38
2021/11/17 12:03:14;;;;;;;38.20;15.38;;;8.80;99.90;;;7.30;100.00;101728.78;2569409;30;139489;-38
2021/11/17 12:06:14;;;;;;;31.42;13.90;;;8.80;99.90;;;7.34;100.00;101730.13;2569214;30;137547;-38
2021/11/17 12:09:19;;;;;;;37.78;14.48;;;8.80;99.90;;;7.33;100.00;101723.84;2569352;30;138324;-38
2021/11/17 12:12:02;;;;;;;32.83;14.07;;;8.80;99.90;;;7.38;100.00;101727.91;2568930;30;137603;-38
2021/11/17 12:14:47;;;;;;;34.90;13.95;;;8.90;99.90;;;7.33;100.00;101726.53;2568115;30;137297;-38
2021/11/17 12:17:26;;;;;;;34.72;15.02;;;8.90;99.90;;;7.38;100.00;101720.63;2569216;30;136982;-38
2021/11/17 12:20:16;;;;;;;33.97;14.38;;;8.90;99.90;;;7.34;100.00;101733.66;2571516;30;137708;-38
2021/11/17 12:22:53;;;;;;;36.83;13.75;;;8.90;99.90;;;7.37;100.00;101720.78;2567286;30;137406;-38
2021/11/17 12:25:32;;;;;;;32.53;13.75;;;8.90;99.90;;;7.36;100.00;101727.22;2570937;30;137564;-38
2021/11/17 12:28:12;;;;;;;31.60;14.82;;;8.90;99.90;;;7.41;100.00;101730.28;2570172;30;136766;-38
2021/11/17 12:30:44;;;;;;;33.05;14.20;;;8.90;99.90;;;7.43;100.00;101728.25;2569156;30;139286;-38
2021/11/17 12:33:17;;;;;;;33.03;14.57;;;8.90;99.90;;;7.36;100.00;101733.53;2566235;30;137155;-38
2021/11/17 12:36:11;;;;;;;36.28;14.75;;;8.90;99.90;;;7.33;100.00;101734.69;2568296;30;139349;-37
2021/11/17 12:38:43;;;;;;;38.10;15.35;;;8.90;99.90;;;7.35;100.00;101748.09;2569101;30;136684;-37
2021/11/17 12:41:32;;;;;;;36.10;14.68;;;8.90;99.90;;;7.28;100.00;101742.50;2569413;30;138406;-38
2021/11/17 12:44:24;;;;;;;40.60;15.45;;;8.80;99.90;;;7.25;100.00;101750.13;2568363;30;138130;-38
2021/11/17 12:47:23;;;;;;;34.22;14.93;;;8.80;99.90;;;7.28;100.00;101757.91;2567274;30;138068;-38
2021/11/17 12:50:10;;;;;;;35.30;14.50;;;8.80;99.90;;;7.32;100.00;101746.56;2570132;30;138058;-37
2021/11/17 12:52:49;;;;;;;33.45;13.40;;;8.80;99.90;;;7.31;100.00;101744.03;2569687;30;138299;-38
2021/11/17 12:55:30;;;;;;;38.40;14.45;;;8.80;99.90;;;7.39;100.00;101740.47;2570981;30;137911;-38
2021/11/17 12:58:08;;;;;;;37.97;13.68;;;8.90;99.90;;;7.43;100.00;101739.13;2569881;30;137304;-38
2021/11/17 13:00:56;;;;;;;40.67;14.47;;;8.90;99.90;;;7.39;100.00;101751.31;2566189;30;137507;-38
2021/11/17 13:03:36;;;;;;;39.70;14.17;;;8.90;99.90;;;7.41;100.00;101750.16;2568725;30;137391;-38
2021/11/17 13:06:48;;;;;;;35.85;13.85;;;8.90;99.90;;;7.36;100.00;101749.81;2568078;30;137484;-37
2021/11/17 13:09:45;;;;;;;30.33;12.88;;;8.90;99.90;;;7.38;100.00;101758.63;2569449;30;138535;-38
2021/11/17 13:12:39;;;;;;;37.72;14.30;;;8.90;99.90;;;7.37;100.00;101762.38;2567459;30;137329;-38
2021/11/17 13:15:21;;;;;;;45.88;16.30;;;8.90;99.90;;;7.43;100.00;101767.13;2568552;30;137471;-38
2021/11/17 13:17:49;;;;;;;42.92;15.32;;;8.90;99.90;;;7.41;100.00;101766.44;2569303;30;137715;-38
2021/11/17 13:20:26;;;;;;;47.65;15.80;;;8.90;99.90;;;7.39;100.00;101762.19;2567788;30;138582;-38
2021/11/17 13:23:04;;;;;;;40.83;15.07;;;8.90;99.90;;;7.41;100.00;101762.84;2569106;30;138391;-38
2021/11/17 13:26:11;;;;;;;41.50;14.93;;;8.90;99.90;;;7.41;100.00;101766.44;2568175;30;137654;-38
2021/11/17 13:28:47;;;;;;;42.28;15.55;;;8.90;99.90;;;7.45;100.00;101769.66;2568524;30;137659;-37
2021/11/17 13:31:35;;;;;;;41.92;15.60;;;8.90;99.90;;;7.45;100.00;101769.66;2566879;30;138341;-38
2021/11/17 13:34:35;;;;;;;43.45;16.20;;;9.00;99.90;;;7.45;100.00;101770.50;2568513;30;137479;-38
2021/11/17 13:37:36;;;;;;;45.90;15.65;;;9.00;99.90;;;7.46;100.00;101771.38;2567876;30;138268;-38
2021/11/17 13:40:18;;;;;;;43.70;16.00;;;9.00;99.90;;;7.44;100.00;101771.53;2567954;30;137736;-38